Time;durP1;ratioP1;P1;durP2;ratioP2;P2;SDS_P1;SDS_P2;PMS_P1;PMS_P2;Temp;Humidity;BMP_temperature;BMP_pressure;BME280_temperature;BME280_humidity;BME280_pressure;Samples;Min_cycle;Max_cycle;Signal;HPM_P1;HPM_P2
2022/03/24 00:00:25;;;;;;;38.15;8.73;;;;;;;5.43;44.77;99645.50;5031168;28;20060;-41
2022/03/24 00:02:51;;;;;;;36.20;9.27;;;;;;;5.41;44.63;99637.78;5030808;28;20037;-42
2022/03/24 00:05:17;;;;;;;32.08;8.88;;;;;;;5.36;44.68;99625.81;5030039;28;20041;-41
2022/03/24 00:07:43;;;;;;;38.60;9.10;;;;;;;5.39;44.91;99633.53;5032111;28;20120;-44
2022/03/24 00:10:09;;;;;;;26.42;9.90;;;;;;;5.35;44.96;99630.13;5030533;28;20112;-42
2022/03/24 00:12:36;;;;;;;33.00;9.45;;;;;;;5.18;44.90;99606.34;5030277;28;20075;-43
2022/03/24 00:15:03;;;;;;;36.28;9.88;;;;;;;5.28;45.32;99622.53;5029653;28;20037;-43
2022/03/24 00:17:30;;;;;;;22.35;9.20;;;;;;;5.10;45.05;99606.44;5031564;28;20049;-42
2022/03/24 00:19:56;;;;;;;28.40;9.00;;;;;;;5.17;45.24;99614.94;5031153;28;20569;-42
2022/03/24 00:22:23;;;;;;;32.22;10.57;;;;;;;5.06;45.26;99604.78;5030991;28;20068;-42
2022/03/24 00:24:48;;;;;;;33.88;9.98;;;;;;;5.16;45.56;99617.53;5031438;28;20033;-42
2022/03/24 00:27:15;;;;;;;29.73;9.43;;;;;;;5.14;45.57;99617.53;5030037;28;20079;-43
2022/03/24 00:29:42;;;;;;;40.50;10.68;;;;;;;5.13;46.06;99618.41;5029192;28;20036;-45
2022/03/24 00:32:08;;;;;;;52.42;14.13;;;;;;;5.10;46.39;99616.72;5027597;28;21055;-43
2022/03/24 00:34:34;;;;;;;76.57;22.95;;;;;;;5.07;46.43;99611.63;5061446;28;20045;-43
2022/03/24 00:37:02;;;;;;;68.28;22.05;;;;;;;5.11;46.72;99609.84;5003105;28;20544;-44
2022/03/24 00:39:33;;;;;;;58.42;17.08;;;;;;;5.07;46.72;99603.06;5011048;28;20076;-42
2022/03/24 00:42:07;;;;;;;42.80;14.25;;;;;;;5.05;46.52;99599.63;5027076;28;20095;-43
2022/03/24 00:44:33;;;;;;;59.00;14.88;;;;;;;5.03;46.54;99606.50;5026666;28;20068;-43
2022/03/24 00:46:58;;;;;;;54.42;17.83;;;;;;;5.01;46.90;99596.25;5027139;28;20084;-43
2022/03/24 00:49:25;;;;;;;55.08;14.05;;;;;;;5.00;46.55;99589.38;5028762;28;20045;-42
2022/03/24 00:51:50;;;;;;;111.18;29.73;;;;;;;5.05;47.00;99591.91;5030193;28;20087;-43
2022/03/24 00:54:18;;;;;;;129.45;34.72;;;;;;;5.08;47.03;99592.69;5020485;28;20049;-42
2022/03/24 00:56:45;;;;;;;118.55;35.10;;;;;;;5.02;47.18;99573.91;5022102;28;20071;-42
2022/03/24 00:59:11;;;;;;;149.40;43.70;;;;;;;5.14;47.15;99591.75;5030398;28;20044;-42
2022/03/24 01:01:39;;;;;;;136.35;38.47;;;;;;;5.14;47.64;99581.47;5029185;28;20045;-42
2022/03/24 01:04:06;;;;;;;158.82;48.97;;;;;;;5.13;47.45;99586.66;5030544;28;20033;-42
2022/03/24 01:06:34;;;;;;;167.13;49.08;;;;;;;5.15;47.65;99590.91;5029160;28;20098;-42
2022/03/24 01:09:04;;;;;;;157.95;51.17;;;;;;;5.04;47.68;99567.84;5031516;28;20052;-43
2022/03/24 01:11:31;;;;;;;138.55;44.45;;;;;;;5.07;47.94;99577.28;5031267;28;20430;-43
2022/03/24 01:13:57;;;;;;;107.45;34.35;;;;;;;5.03;48.10;99581.59;5030210;28;20505;-41
2022/03/24 01:16:23;;;;;;;131.93;36.90;;;;;;;4.99;48.33;99579.94;5030198;28;20094;-44
2022/03/24 01:18:50;;;;;;;120.38;38.90;;;;;;;5.01;48.47;99570.50;5028821;28;20132;-44
2022/03/24 01:21:16;;;;;;;129.20;41.83;;;;;;;5.06;48.44;99571.28;5029593;28;20052;-42
2022/03/24 01:23:44;;;;;;;131.30;41.13;;;;;;;5.07;48.64;99565.25;5030143;28;20037;-43
2022/03/24 01:26:12;;;;;;;148.82;43.75;;;;;;;5.05;48.84;99568.72;5028843;28;20046;-43
2022/03/24 01:28:40;;;;;;;138.73;43.47;;;;;;;5.02;49.06;99567.00;5024204;28;20041;-42
2022/03/24 01:31:08;;;;;;;141.70;43.78;;;;;;;4.90;49.27;99556.91;5030626;28;20116;-41
2022/03/24 01:33:37;;;;;;;124.93;41.22;;;;;;;4.93;49.18;99566.28;5013105;28;20041;-42
2022/03/24 01:36:11;;;;;;;120.00;38.33;;;;;;;4.89;49.75;99568.06;5028199;28;20124;-42
2022/03/24 01:38:38;;;;;;;130.45;39.65;;;;;;;4.85;49.48;99574.13;5014917;28;20041;-42
2022/03/24 01:41:07;;;;;;;148.77;37.50;;;;;;;4.84;49.87;99571.56;5028618;28;20432;-42
2022/03/24 01:43:33;;;;;;;141.30;35.97;;;;;;;4.79;50.31;99566.50;5028652;28;20045;-44
2022/03/24 01:45:59;;;;;;;156.48;37.08;;;;;;;4.58;50.29;99533.28;5029334;28;20071;-42
2022/03/24 01:48:26;;;;;;;128.05;36.95;;;;;;;4.73;50.34;99557.97;5019244;28;20137;-42
2022/03/24 01:50:53;;;;;;;148.20;37.17;;;;;;;4.69;50.66;99558.03;5029337;28;20073;-41
2022/03/24 01:53:19;;;;;;;134.10;37.70;;;;;;;4.65;50.92;99558.94;5029272;28;20037;-43
2022/03/24 01:55:47;;;;;;;122.95;35.70;;;;;;;4.62;50.82;99552.97;5011776;28;20405;-43
2022/03/24 01:58:14;;;;;;;124.88;35.05;;;;;;;4.61;50.98;99558.97;5018948;28;20136;-43
2022/03/24 02:00:41;;;;;;;128.63;35.58;;;;;;;4.61;51.21;99556.41;5043999;28;20061;-42
2022/03/24 02:03:08;;;;;;;136.05;36.33;;;;;;;4.49;50.97;99536.84;5013600;28;20048;-42
2022/03/24 02:05:35;;;;;;;133.35;34.30;;;;;;;4.53;51.32;99550.50;5026233;28;20053;-42
2022/03/24 02:08:03;;;;;;;164.82;36.90;;;;;;;4.48;51.38;99550.56;5020740;28;20068;-42
2022/03/24 02:10:31;;;;;;;146.70;35.45;;;;;;;4.46;51.69;99551.44;5025652;28;20040;-42
2022/03/24 02:12:57;;;;;;;136.30;35.53;;;;;;;4.43;51.95;99543.78;5032901;28;20037;-42
2022/03/24 02:15:24;;;;;;;149.20;36.20;;;;;;;4.38;51.58;99543.84;5015401;28;20708;-42
2022/03/24 02:17:52;;;;;;;128.57;36.30;;;;;;;4.36;51.96;99536.97;5032261;28;20124;-43
2022/03/24 02:20:20;;;;;;;129.18;32.08;;;;;;;4.30;51.90;99527.59;5015734;28;20056;-42
2022/03/24 02:22:51;;;;;;;114.50;32.20;;;;;;;4.34;51.75;99531.03;5031810;28;20095;-41
2022/03/24 02:25:16;;;;;;;104.22;29.77;;;;;;;4.32;52.10;99531.03;5025741;28;20073;-42
2022/03/24 02:27:47;;;;;;;132.05;35.15;;;;;;;4.23;51.87;99510.56;5029979;28;20581;-42
2022/03/24 02:30:13;;;;;;;100.10;30.08;;;;;;;4.19;51.77;99512.28;5031473;28;20045;-43
2022/03/24 02:32:38;;;;;;;114.93;29.25;;;;;;;4.07;51.67;99491.03;5013909;28;20030;-43
2022/03/24 02:35:04;;;;;;;105.88;28.90;;;;;;;4.17;51.85;99515.78;5012425;28;20052;-42
2022/03/24 02:37:30;;;;;;;85.78;22.73;;;;;;;4.26;51.40;99520.81;5031684;28;20040;-42
2022/03/24 02:39:58;;;;;;;73.18;22.35;;;;;;;4.14;51.00;99502.91;5031728;28;20045;-42
2022/03/24 02:42:27;;;;;;;80.82;23.00;;;;;;;4.08;50.81;99482.44;4999112;28;20049;-42
2022/03/24 02:45:02;;;;;;;63.60;19.75;;;;;;;4.26;51.02;99516.50;5033067;28;20042;-43
2022/03/24 02:47:29;;;;;;;67.22;17.85;;;;;;;4.27;50.65;99514.78;5030773;28;20038;-41
2022/03/24 02:49:56;;;;;;;72.80;21.80;;;;;;;4.29;50.56;99522.50;5033766;28;20045;-41
2022/03/24 02:52:22;;;;;;;66.90;20.52;;;;;;;4.25;50.16;99513.94;5033779;28;20033;-42
2022/03/24 02:54:48;;;;;;;67.28;20.58;;;;;;;4.28;50.12;99513.94;5006679;28;20042;-43
2022/03/24 02:57:14;;;;;;;89.28;24.95;;;;;;;4.19;50.74;99494.28;5029789;28;20045;-41
2022/03/24 02:59:40;;;;;;;76.82;24.23;;;;;;;4.27;51.24;99507.06;5031950;28;20060;-41
2022/03/24 03:02:13;;;;;;;88.30;24.27;;;;;;;4.25;51.56;99514.81;5017938;28;20128;-42
2022/03/24 03:04:40;;;;;;;75.38;22.48;;;;;;;4.23;51.61;99508.00;5032189;28;20124;-42
2022/03/24 03:07:07;;;;;;;81.40;21.15;;;;;;;4.21;51.93;99510.56;5031119;28;20049;-42
2022/03/24 03:09:34;;;;;;;73.53;21.80;;;;;;;4.13;52.10;99498.66;5032777;28;20504;-42
2022/03/24 03:12:00;;;;;;;67.68;19.38;;;;;;;4.17;51.65;99506.34;5008230;28;20163;-41
2022/03/24 03:14:29;;;;;;;79.82;21.63;;;;;;;4.14;51.61;99506.34;5031372;28;20541;-42
2022/03/24 03:16:57;;;;;;;78.70;20.92;;;;;;;4.14;51.73;99500.34;5026947;28;20034;-42
2022/03/24 03:19:23;;;;;;;70.88;20.05;;;;;;;4.14;51.75;99501.22;5031688;28;20041;-42
2022/03/24 03:21:49;;;;;;;69.80;19.35;;;;;;;4.13;51.76;99508.97;5032355;28;20037;-42
2022/03/24 03:24:17;;;;;;;57.47;17.00;;;;;;;4.13;51.27;99503.81;5032730;28;20042;-42
2022/03/24 03:26:44;;;;;;;59.93;19.17;;;;;;;4.13;51.63;99503.81;5032586;28;20425;-43
2022/03/24 03:29:10;;;;;;;68.57;19.65;;;;;;;4.07;51.63;99491.03;5031825;28;20037;-42
2022/03/24 03:31:37;;;;;;;71.68;19.60;;;;;;;4.08;51.86;99493.56;5031055;28;20040;-43
2022/03/24 03:34:08;;;;;;;63.83;19.77;;;;;;;4.13;51.93;99498.66;5031255;28;20619;-41
2022/03/24 03:36:34;;;;;;;69.28;20.52;;;;;;;4.13;52.19;99493.53;5032246;28;20535;-43
2022/03/24 03:39:01;;;;;;;71.40;20.55;;;;;;;4.04;52.51;99485.91;5023131;28;20061;-42
2022/03/24 03:41:29;;;;;;;69.97;18.50;;;;;;;4.15;52.54;99491.78;5031036;28;20425;-42
2022/03/24 03:43:55;;;;;;;62.42;16.65;;;;;;;4.03;52.48;99468.78;5030955;28;20043;-43
2022/03/24 03:46:22;;;;;;;68.70;18.98;;;;;;;4.19;52.26;99485.72;5031714;28;20041;-43
2022/03/24 03:48:50;;;;;;;67.57;19.02;;;;;;;4.24;52.36;99489.94;5025708;28;20046;-42
2022/03/24 03:51:15;;;;;;;63.28;19.23;;;;;;;4.24;52.07;99483.94;5025421;28;20043;-43
2022/03/24 03:53:42;;;;;;;63.03;20.10;;;;;;;4.34;51.79;99495.84;5032367;28;20513;-42
2022/03/24 03:56:08;;;;;;;64.05;18.13;;;;;;;4.38;51.75;99491.50;5032035;28;20032;-43
2022/03/24 03:58:35;;;;;;;59.05;19.33;;;;;;;4.30;51.62;99476.16;5030477;28;20047;-42
2022/03/24 04:01:04;;;;;;;61.97;21.15;;;;;;;4.31;51.76;99472.72;5013628;28;20052;-42
2022/03/24 04:03:32;;;;;;;61.38;18.75;;;;;;;4.44;51.66;99488.84;5030601;28;20049;-42
2022/03/24 04:06:00;;;;;;;49.13;15.95;;;;;;;4.39;51.71;99475.19;5049534;28;20041;-42
2022/03/24 04:08:29;;;;;;;55.75;16.98;;;;;;;4.48;51.59;99490.53;5013093;28;20041;-43
2022/03/24 04:10:55;;;;;;;54.40;17.90;;;;;;;4.35;51.69;99458.91;5031328;28;20639;-43
2022/03/24 04:13:22;;;;;;;63.03;17.15;;;;;;;4.59;51.19;99484.38;5031566;28;20037;-43
2022/03/24 04:15:48;;;;;;;58.67;16.23;;;;;;;4.63;51.29;99473.13;5028969;28;20048;-42
2022/03/24 04:18:15;;;;;;;50.95;15.82;;;;;;;4.72;50.75;99490.19;4997773;28;20480;-43
2022/03/24 04:20:41;;;;;;;61.78;16.45;;;;;;;4.66;50.58;99467.94;5012319;28;20501;-42
2022/03/24 04:23:07;;;;;;;65.18;18.33;;;;;;;4.80;50.29;99482.34;5005127;28;20094;-43
2022/03/24 04:25:34;;;;;;;62.22;15.02;;;;;;;4.80;49.98;99475.47;5030468;28;20041;-43
2022/03/24 04:27:59;;;;;;;54.33;16.40;;;;;;;4.94;50.07;99481.28;5019199;28;20080;-42
2022/03/24 04:30:26;;;;;;;72.47;17.02;;;;;;;5.02;49.58;99481.16;5016883;28;20061;-43
2022/03/24 04:32:53;;;;;;;63.25;16.38;;;;;;;5.07;49.23;99476.81;5011327;28;20056;-43
2022/03/24 04:35:19;;;;;;;62.83;16.05;;;;;;;5.13;48.56;99472.38;5015680;28;20041;-43
2022/03/24 04:37:45;;;;;;;53.78;15.13;;;;;;;5.18;48.12;99474.06;5028109;28;20424;-43
2022/03/24 04:40:12;;;;;;;55.47;15.82;;;;;;;5.24;48.38;99479.94;5022042;28;20132;-42
2022/03/24 04:42:39;;;;;;;58.15;15.55;;;;;;;5.34;47.77;99473.75;5011558;28;20061;-43
2022/03/24 04:45:06;;;;;;;63.63;15.88;;;;;;;5.40;47.87;99477.97;5006488;28;20091;-43
2022/03/24 04:47:34;;;;;;;78.68;17.40;;;;;;;5.41;47.53;99459.03;5031754;28;20501;-43
2022/03/24 04:50:00;;;;;;;53.65;17.63;;;;;;;5.42;47.59;99451.28;5030761;28;20136;-43
2022/03/24 04:52:26;;;;;;;53.47;17.58;;;;;;;5.63;47.33;99470.69;5031326;28;20132;-43
2022/03/24 04:54:52;;;;;;;50.92;15.30;;;;;;;5.75;47.18;99472.22;5012240;28;20045;-43
2022/03/24 04:57:18;;;;;;;51.15;15.98;;;;;;;5.83;46.70;99466.03;5030566;28;20041;-45
2022/03/24 04:59:44;;;;;;;45.97;16.10;;;;;;;5.89;46.11;99470.25;5062488;28;20433;-44
2022/03/24 05:02:15;;;;;;;56.22;16.50;;;;;;;5.95;46.09;99473.56;5029855;28;20175;-43
2022/03/24 05:04:42;;;;;;;53.42;17.60;;;;;;;5.99;45.83;99471.75;5013200;28;20049;-42
2022/03/24 05:07:09;;;;;;;62.88;16.90;;;;;;;6.03;46.18;99462.22;5029904;28;20042;-43
2022/03/24 05:09:35;;;;;;;54.85;17.98;;;;;;;6.04;45.71;99451.03;5029353;28;20056;-43
2022/03/24 05:12:01;;;;;;;50.85;17.80;;;;;;;6.16;45.12;99472.31;5026470;28;20516;-44
2022/03/24 05:14:27;;;;;;;52.78;17.85;;;;;;;6.20;44.84;99470.50;5029875;28;20119;-43
2022/03/24 05:16:53;;;;;;;52.50;16.65;;;;;;;6.24;45.16;99466.97;5023135;28;20041;-44
2022/03/24 05:19:19;;;;;;;45.28;16.92;;;;;;;6.29;44.78;99467.72;5026405;28;20053;-44
2022/03/24 05:21:45;;;;;;;57.08;17.70;;;;;;;6.37;44.09;99468.44;5037493;28;20048;-43
2022/03/24 05:24:12;;;;;;;54.13;17.60;;;;;;;6.44;44.19;99469.97;5012686;28;20048;-43
2022/03/24 05:26:39;;;;;;;55.15;16.77;;;;;;;6.48;43.74;99471.63;5028535;28;20547;-44
2022/03/24 05:29:05;;;;;;;48.85;17.35;;;;;;;6.54;43.09;99468.06;5030554;28;20049;-43
2022/03/24 05:31:31;;;;;;;50.65;16.23;;;;;;;6.56;43.11;99454.22;5027333;28;20120;-43
2022/03/24 05:33:56;;;;;;;50.90;17.15;;;;;;;6.72;43.28;99467.66;5027613;28;20496;-43
2022/03/24 05:36:22;;;;;;;54.25;17.52;;;;;;;6.79;42.46;99466.66;5027711;28;20037;-43
2022/03/24 05:38:48;;;;;;;51.10;16.60;;;;;;;6.89;42.27;99468.13;5027681;28;20037;-41
2022/03/24 05:41:14;;;;;;;44.97;16.00;;;;;;;7.02;42.38;99473.84;5039349;28;20046;-43
2022/03/24 05:44:02;;;;;;;39.97;16.80;;;;;;;7.22;41.55;99469.91;5030412;28;20095;-40
2022/03/24 05:46:26;;;;;;;46.83;15.98;;;;;;;7.42;40.69;99466.00;5029457;28;20037;-41
2022/03/24 05:48:51;;;;;;;31.95;14.80;;;;;;;7.56;40.52;99472.53;5019238;28;20038;-43
2022/03/24 05:51:36;;;;;;;41.53;17.42;;;;;;;7.77;39.68;99473.69;5010715;28;20037;-42
2022/03/24 05:54:03;;;;;;;35.58;15.85;;;;;;;7.93;39.11;99474.13;5027213;28;20037;-51
2022/03/24 05:56:30;;;;;;;37.80;15.55;;;;;;;8.23;38.69;99473.28;5027439;28;20044;-41
2022/03/24 05:58:56;;;;;;;44.72;16.27;;;;;;;8.79;37.87;99471.66;5061272;28;20041;-43
2022/03/24 06:01:25;;;;;;;37.38;17.48;;;;;;;9.62;36.51;99472.47;5027111;28;20057;-41
2022/03/24 06:03:51;;;;;;;41.08;16.77;;;;;;;10.75;34.64;99469.22;5034743;28;20436;-41
2022/03/24 06:06:20;;;;;;;38.35;16.42;;;;;;;11.81;32.93;99481.41;5029534;28;20038;-41
2022/03/24 06:08:52;;;;;;;32.88;16.98;;;;;;;12.76;31.29;99479.78;4992660;28;20524;-43
2022/03/24 06:11:19;;;;;;;49.00;18.17;;;;;;;13.76;30.16;99477.53;5028802;28;20420;-42
2022/03/24 06:13:48;;;;;;;39.17;17.75;;;;;;;14.70;28.78;99478.66;5030150;28;20042;-43
2022/03/24 06:16:14;;;;;;;45.90;18.98;;;;;;;15.59;27.28;99475.38;5016466;28;20096;-42
2022/03/24 06:18:40;;;;;;;45.63;18.58;;;;;;;16.27;26.12;99477.44;5027005;28;20046;-43
2022/03/24 06:21:07;;;;;;;35.55;18.35;;;;;;;17.12;25.10;99482.56;5028533;28;20116;-46
2022/03/24 06:23:33;;;;;;;51.60;19.85;;;;;;;17.82;24.01;99488.50;5027766;28;20069;-44
2022/03/24 06:25:59;;;;;;;39.75;19.83;;;;;;;18.53;23.13;99476.50;5023193;28;20069;-44
2022/03/24 06:28:25;;;;;;;54.60;20.33;;;;;;;19.23;22.81;99481.19;5024547;28;20049;-44
2022/03/24 06:30:51;;;;;;;40.75;19.88;;;;;;;19.82;21.98;99487.34;5019376;28;20056;-46
2022/03/24 06:33:17;;;;;;;54.45;21.02;;;;;;;20.41;20.68;99482.75;5021691;28;20128;-44
2022/03/24 06:35:45;;;;;;;45.53;20.65;;;;;;;20.94;20.56;99488.25;5034958;28;20520;-44
2022/03/24 06:38:11;;;;;;;50.55;20.92;;;;;;;21.43;19.95;99486.00;5029851;28;20056;-43
2022/03/24 06:40:38;;;;;;;46.42;20.63;;;;;;;22.00;18.94;99481.28;5020760;28;20045;-50
2022/03/24 06:43:05;;;;;;;51.70;21.02;;;;;;;22.63;18.45;99488.19;5029275;28;20120;-43
2022/03/24 06:45:32;;;;;;;46.97;20.48;;;;;;;23.22;17.74;99478.47;5031105;28;20509;-42
2022/03/24 06:47:58;;;;;;;39.78;19.88;;;;;;;23.66;17.21;99481.56;5027211;28;20047;-43
2022/03/24 06:50:24;;;;;;;44.80;19.73;;;;;;;24.11;16.94;99481.81;4999619;28;20120;-43
2022/03/24 06:52:50;;;;;;;65.07;21.98;;;;;;;24.49;16.53;99486.19;5027738;28;20042;-43
2022/03/24 06:55:16;;;;;;;61.72;22.33;;;;;;;24.91;16.19;99485.75;5031393;28;20044;-53
2022/03/24 06:57:42;;;;;;;52.90;24.15;;;;;;;25.13;15.83;99486.16;5033778;28;20543;-53
2022/03/24 07:00:13;;;;;;;59.05;22.73;;;;;;;25.55;15.63;99489.09;5032026;28;20437;-55
2022/03/24 07:02:39;;;;;;;43.53;20.67;;;;;;;25.80;15.11;99466.22;5053276;28;20054;-55
2022/03/24 07:05:06;;;;;;;45.85;21.75;;;;;;;26.40;14.79;99493.78;5015768;28;20056;-54
2022/03/24 07:07:31;;;;;;;54.70;21.98;;;;;;;26.76;14.28;99488.28;5048652;28;20165;-53
2022/03/24 07:09:57;;;;;;;46.88;21.52;;;;;;;27.19;14.15;99490.81;5053025;28;20617;-54
2022/03/24 07:12:23;;;;;;;49.92;21.55;;;;;;;27.23;14.20;99488.63;5021250;28;20045;-52
2022/03/24 07:14:48;;;;;;;56.08;20.58;;;;;;;27.54;14.02;99488.88;5044599;28;20087;-51
2022/03/24 07:17:15;;;;;;;63.63;20.58;;;;;;;28.13;13.40;99496.59;5020433;28;20424;-54
2022/03/24 07:19:41;;;;;;;49.38;20.17;;;;;;;28.41;12.87;99475.66;5030779;28;20516;-53
2022/03/24 07:22:08;;;;;;;47.33;21.23;;;;;;;28.96;12.80;99488.16;5027850;28;20037;-57
2022/03/24 07:24:33;;;;;;;49.20;20.63;;;;;;;29.15;12.52;99479.72;5031807;28;20045;-54
2022/03/24 07:26:59;;;;;;;46.42;22.67;;;;;;;29.59;11.94;99485.28;5032014;28;20546;-53
2022/03/24 07:29:25;;;;;;;42.60;19.40;;;;;;;30.05;11.67;99485.25;5032540;28;20049;-52
2022/03/24 07:31:51;;;;;;;29.40;17.63;;;;;;;30.50;11.42;99490.53;5028253;28;20497;-56
2022/03/24 07:34:17;;;;;;;37.53;19.90;;;;;;;30.90;10.89;99467.72;5030028;28;20120;-54
2022/03/24 07:36:43;;;;;;;35.88;17.70;;;;;;;31.68;10.70;99490.31;5025673;28;20049;-56
2022/03/24 07:39:10;;;;;;;28.90;17.90;;;;;;;31.95;10.03;99493.03;5032038;28;20037;-53
2022/03/24 07:41:36;;;;;;;30.30;15.40;;;;;;;32.39;9.85;99491.94;5030994;28;20044;-53
2022/03/24 07:44:02;;;;;;;31.15;15.27;;;;;;;32.90;9.58;99494.31;5031709;28;20121;-54
2022/03/24 07:46:28;;;;;;;33.53;15.98;;;;;;;33.14;9.42;99494.59;5030830;28;20045;-52
2022/03/24 07:48:54;;;;;;;25.40;14.65;;;;;;;33.14;9.17;99486.50;5030580;28;20095;-51
2022/03/24 07:51:20;;;;;;;24.92;14.48;;;;;;;32.91;9.29;99486.03;5032150;28;20049;-52
2022/03/24 07:53:48;;;;;;;29.05;16.08;;;;;;;33.11;9.37;99499.56;5031718;28;20068;-52
2022/03/24 07:56:16;;;;;;;21.02;13.00;;;;;;;33.48;8.80;99496.38;5029840;28;20523;-52
2022/03/24 07:58:42;;;;;;;25.10;13.63;;;;;;;33.65;8.74;99491.44;5044304;28;20374;-53
2022/03/24 08:01:08;;;;;;;23.90;13.43;;;;;;;33.82;8.66;99471.13;5033436;28;20049;-49
2022/03/24 08:03:34;;;;;;;28.70;14.40;;;;;;;33.75;8.69;99488.38;5030169;28;20106;-51
2022/03/24 08:06:03;;;;;;;37.95;13.40;;;;;;;33.52;8.56;99486.84;5039736;28;20505;-49
2022/03/24 08:08:30;;;;;;;25.63;12.00;;;;;;;33.39;8.56;99486.00;5030425;28;20428;-52
2022/03/24 08:10:57;;;;;;;24.92;12.98;;;;;;;33.39;8.47;99488.69;5047184;28;20083;-51
2022/03/24 08:13:23;;;;;;;17.17;11.33;;;;;;;33.61;8.45;99477.53;4996460;28;20575;-51
2022/03/24 08:15:52;;;;;;;21.50;11.43;;;;;;;33.70;8.36;99488.16;5050949;28;20036;-55
2022/03/24 08:18:18;;;;;;;27.27;12.82;;;;;;;34.01;8.18;99470.31;5032209;28;20045;-50
2022/03/24 08:20:49;;;;;;;19.30;11.25;;;;;;;34.20;8.18;99479.44;4993761;28;20424;-56
2022/03/24 08:23:14;;;;;;;24.60;10.82;;;;;;;34.44;7.61;99467.13;5010835;28;20066;-51
2022/03/24 08:25:42;;;;;;;19.60;10.90;;;;;;;34.38;8.10;99479.63;5016113;28;20536;-50
2022/03/24 08:28:10;;;;;;;17.73;10.18;;;;;;;33.97;8.26;99476.31;5032265;28;20044;-53
2022/03/24 08:30:36;;;;;;;15.32;9.20;;;;;;;33.95;8.14;99479.25;5027655;28;20071;-55
2022/03/24 08:33:03;;;;;;;16.50;9.45;;;;;;;33.80;8.08;99478.63;5044281;28;20052;-47
2022/03/24 08:35:28;;;;;;;15.95;8.88;;;;;;;34.29;8.21;99471.94;5014435;28;20072;-41
2022/03/24 08:37:55;;;;;;;16.48;8.60;;;;;;;34.93;7.67;99482.78;5013804;28;20076;-42
2022/03/24 08:40:22;;;;;;;17.60;8.38;;;;;;;35.40;7.33;99476.13;5002017;28;20513;-42
2022/03/24 08:42:48;;;;;;;16.50;9.10;;;;;;;35.47;6.98;99463.41;5020782;28;20413;-44
2022/03/24 08:45:15;;;;;;;15.07;8.43;;;;;;;35.57;7.23;99471.84;5031413;28;20475;-42
2022/03/24 08:47:42;;;;;;;15.43;8.27;;;;;;;35.77;7.22;99470.91;5030549;28;20045;-43
2022/03/24 08:50:10;;;;;;;19.80;9.25;;;;;;;35.90;7.56;99474.34;5016635;28;20037;-44
2022/03/24 08:52:36;;;;;;;13.05;7.40;;;;;;;36.08;7.11;99474.38;5028244;28;20041;-44
2022/03/24 08:55:24;;;;;;;11.70;6.20;;;;;;;36.21;6.72;99465.34;5029906;28;20045;-45
2022/03/24 08:57:49;;;;;;;;;;;;;;;36.31;7.02;99481.06;5022721;28;20227;-44
2022/03/24 09:00:17;;;;;;;7.00;4.95;;;;;;;36.30;6.70;99480.22;5021248;28;20024;-45
2022/03/24 09:02:44;;;;;;;10.38;5.65;;;;;;;36.36;6.98;99478.50;5029838;28;20220;-44
2022/03/24 09:05:10;;;;;;;14.50;5.68;;;;;;;36.45;6.66;99477.97;5029081;28;20405;-42
2022/03/24 09:07:37;;;;;;;11.05;5.50;;;;;;;36.43;6.53;99482.78;5045670;28;20039;-44
2022/03/24 09:10:07;;;;;;;12.10;6.18;;;;;;;36.41;6.49;99481.38;5034130;28;20038;-44
2022/03/24 09:12:38;;;;;;;11.95;6.22;;;;;;;36.45;6.25;99456.31;5008748;28;20045;-46
2022/03/24 09:15:08;;;;;;;16.05;10.43;;;;;;;36.73;6.38;99480.22;5028719;28;20546;-46
2022/03/24 09:17:36;;;;;;;15.38;7.90;;;;;;;36.93;6.64;99475.38;5037066;28;20037;-47
2022/03/24 09:20:03;;;;;;;16.27;7.38;;;;;;;37.06;6.55;99473.53;5037799;28;20041;-42
2022/03/24 09:22:47;;;;;;;10.90;6.95;;;;;;;36.90;6.24;99454.13;5035540;28;21053;-45
2022/03/24 09:25:15;;;;;;;13.07;7.07;;;;;;;37.02;6.46;99470.44;5027136;28;20065;-46
2022/03/24 09:27:42;;;;;;;13.25;6.90;;;;;;;36.87;6.16;99475.44;5028577;28;20351;-43
2022/03/24 09:30:09;;;;;;;10.15;6.88;;;;;;;36.73;6.38;99465.81;5030068;28;20202;-44
2022/03/24 09:32:35;;;;;;;10.30;6.95;;;;;;;36.76;6.15;99460.78;5017701;28;20056;-44
2022/03/24 09:35:03;;;;;;;10.13;7.22;;;;;;;36.56;6.25;99433.06;5014400;28;20064;-43
2022/03/24 09:37:29;;;;;;;15.52;7.63;;;;;;;36.80;6.41;99459.25;5029134;28;20505;-44
2022/03/24 09:39:55;;;;;;;14.90;7.30;;;;;;;36.90;6.51;99453.31;5024595;28;20131;-42
2022/03/24 09:42:23;;;;;;;11.00;6.40;;;;;;;37.25;6.17;99467.03;5024410;28;20148;-42
2022/03/24 09:44:49;;;;;;;9.68;5.95;;;;;;;37.00;6.30;99469.88;5024178;28;20045;-44
2022/03/24 09:47:16;;;;;;;12.55;6.75;;;;;;;37.18;5.81;99467.13;5010611;28;20065;-43
2022/03/24 09:49:43;;;;;;;10.80;6.95;;;;;;;37.36;6.36;99441.00;5007511;28;20042;-44
2022/03/24 09:52:13;;;;;;;11.25;6.30;;;;;;;37.65;6.31;99464.56;5018377;28;20040;-44
2022/03/24 09:54:42;;;;;;;18.50;6.63;;;;;;;37.65;6.10;99459.97;5027297;28;20056;-42
2022/03/24 09:57:09;;;;;;;14.30;6.53;;;;;;;37.43;6.00;99453.41;5028460;28;20056;-44
2022/03/24 09:59:35;;;;;;;15.10;6.40;;;;;;;37.62;6.00;99456.91;5027472;28;20458;-43
2022/03/24 10:02:03;;;;;;;10.30;6.57;;;;;;;37.56;5.75;99438.84;5010347;28;20037;-45
2022/03/24 10:04:53;;;;;;;9.77;5.88;;;;;;;37.59;5.86;99452.75;4993910;28;20042;-44
2022/03/24 10:07:23;;;;;;;17.83;6.40;;;;;;;37.47;5.74;99460.03;5030197;28;20128;-44
2022/03/24 10:09:51;;;;;;;15.32;6.70;;;;;;;37.49;6.38;99454.34;5059713;28;20539;-42
2022/03/24 10:12:22;;;;;;;;;;;;;;;37.71;6.07;99461.75;5010025;28;20073;-43
2022/03/24 10:15:02;;;;;;;17.30;8.48;;;;;;;37.36;5.96;99460.00;5022283;28;20392;-44
2022/03/24 10:17:30;;;;;;;10.68;4.78;;;;;;;37.73;5.71;99456.09;5029186;28;20118;-45
2022/03/24 10:20:08;;;;;;;13.10;7.05;;;;;;;37.63;5.79;99453.13;5029022;28;20045;-48
2022/03/24 10:22:35;;;;;;;6.78;5.50;;;;;;;37.55;5.87;99464.31;5022299;28;20040;-46
2022/03/24 10:25:03;;;;;;;16.63;6.43;;;;;;;37.40;6.16;99463.91;5033819;28;20075;-45
2022/03/24 10:27:29;;;;;;;10.27;5.65;;;;;;;37.57;6.18;99438.63;5032589;28;20045;-46
2022/03/24 10:29:58;;;;;;;11.77;7.00;;;;;;;37.57;6.39;99444.03;5033535;28;20048;-46
2022/03/24 10:32:29;;;;;;;11.80;5.38;;;;;;;37.51;6.02;99461.22;5030603;28;20130;-44
2022/03/24 10:35:10;;;;;;;8.60;5.38;;;;;;;37.36;5.66;99457.28;5033505;28;20114;-46
2022/03/24 10:37:37;;;;;;;5.88;5.13;;;;;;;37.39;5.69;99448.69;5045326;28;20045;-47
2022/03/24 10:40:08;;;;;;;10.52;5.18;;;;;;;37.29;5.80;99454.66;5026746;28;20469;-44
2022/03/24 10:42:37;;;;;;;8.23;5.88;;;;;;;37.14;5.63;99440.69;5016574;28;20041;-46
2022/03/24 10:45:10;;;;;;;12.65;5.70;;;;;;;37.16;5.45;99455.66;5031209;28;20033;-45
2022/03/24 10:47:56;;;;;;;12.15;5.88;;;;;;;37.18;5.71;99453.56;5028555;28;20041;-43
2022/03/24 10:50:24;;;;;;;9.27;5.72;;;;;;;37.09;5.61;99459.53;5024701;28;20037;-47
2022/03/24 10:52:51;;;;;;;8.80;5.50;;;;;;;37.13;6.02;99448.00;5015343;28;20045;-45
2022/03/24 10:55:37;;;;;;;7.70;6.05;;;;;;;37.27;5.99;99445.91;5016750;28;20517;-46
2022/03/24 10:58:03;;;;;;;7.30;5.30;;;;;;;37.05;5.72;99455.63;5002316;28;20057;-44
2022/03/24 11:00:29;;;;;;;9.40;5.57;;;;;;;36.93;5.52;99453.69;5018518;28;20046;-47
2022/03/24 11:02:56;;;;;;;10.63;5.13;;;;;;;36.93;5.36;99450.97;5048526;28;20132;-46
2022/03/24 11:05:21;;;;;;;6.65;5.35;;;;;;;36.85;5.60;99451.25;5031265;28;20041;-44
2022/03/24 11:07:54;;;;;;;14.70;6.03;;;;;;;36.76;5.39;99446.38;5033202;28;20033;-44
2022/03/24 11:10:22;;;;;;;12.40;5.47;;;;;;;36.82;5.66;99445.47;5030668;28;20040;-44
2022/03/24 11:12:49;;;;;;;;;;;;;;;36.87;5.90;99442.91;5033385;28;20052;-43
2022/03/24 11:15:16;;;;;;;10.73;5.95;;;;;;;36.93;5.60;99437.41;5029406;28;19928;-47
2022/03/24 11:17:42;;;;;;;8.80;5.88;;;;;;;36.64;5.49;99448.22;5031145;28;20127;-46
2022/03/24 11:20:09;;;;;;;8.95;6.30;;;;;;;36.22;5.46;99448.00;5033827;28;20037;-44
2022/03/24 11:23:01;;;;;;;9.75;6.03;;;;;;;35.84;5.54;99440.03;5046355;28;20037;-44
2022/03/24 11:25:28;;;;;;;9.48;6.50;;;;;;;35.94;5.68;99445.78;5032730;28;20037;-44
2022/03/24 11:27:55;;;;;;;10.68;7.05;;;;;;;35.88;5.77;99441.25;5031504;28;20053;-44